createdAt,value
2022-07-27T00:00:48.385Z,1.00
2022-07-27T00:03:15.385Z,1.00
2022-07-27T00:05:42.536Z,1.00
2022-07-27T00:08:09.525Z,1.00
2022-07-27T00:10:37.213Z,1.00
2022-07-27T00:13:05.149Z,1.00
2022-07-27T00:15:32.863Z,1.00
2022-07-27T00:18:01.011Z,1.00
2022-07-27T00:20:28.970Z,1.00
2022-07-27T00:22:56.496Z,1.00
2022-07-27T00:25:24.034Z,1.00
2022-07-27T00:27:50.816Z,1.00
2022-07-27T00:30:17.552Z,1.00
2022-07-27T00:32:44.297Z,1.00
2022-07-27T00:35:11.611Z,1.00
2022-07-27T00:37:38.456Z,1.00
2022-07-27T00:40:06.051Z,1.00
2022-07-27T00:42:33.001Z,1.00
2022-07-27T00:45:00.118Z,1.00
2022-07-27T00:47:27.214Z,1.00
2022-07-27T00:49:55.369Z,1.00
2022-07-27T00:52:23.257Z,1.00
2022-07-27T00:54:50.431Z,1.00
2022-07-27T00:57:17.175Z,1.00
2022-07-27T00:59:44.033Z,1.00
2022-07-27T01:02:12.019Z,1.00
2022-07-27T01:04:41.102Z,1.00
2022-07-27T01:07:15.013Z,1.00
2022-07-27T01:09:57.439Z,1.00
2022-07-27T01:12:31.265Z,1.00
2022-07-27T01:14:59.206Z,1.00
2022-07-27T01:17:29.063Z,1.00
2022-07-27T01:19:55.752Z,1.00
2022-07-27T01:22:22.433Z,1.00
2022-07-27T01:24:50.222Z,1.00
2022-07-27T01:27:17.194Z,1.00
2022-07-27T01:29:44.903Z,1.00
2022-07-27T01:32:11.899Z,1.00
2022-07-27T01:34:39.071Z,1.00
2022-07-27T01:37:06.085Z,1.00
2022-07-27T01:39:33.138Z,1.00
2022-07-27T01:42:00.843Z,1.00
2022-07-27T01:44:27.746Z,1.00
2022-07-27T01:46:54.500Z,1.00
2022-07-27T01:49:21.296Z,1.00
2022-07-27T01:51:48.016Z,1.00
2022-07-27T01:54:16.962Z,1.00
2022-07-27T01:56:43.952Z,1.00
2022-07-27T01:59:16.286Z,1.00
2022-07-27T02:01:44.170Z,1.00
2022-07-27T02:04:10.890Z,1.00
2022-07-27T02:06:37.537Z,1.00
2022-07-27T02:09:04.192Z,1.00
2022-07-27T02:11:49.356Z,1.00
2022-07-27T02:14:16.580Z,1.00
2022-07-27T02:16:43.559Z,1.00
2022-07-27T02:19:11.081Z,1.00
2022-07-27T02:21:38.051Z,1.00
2022-07-27T02:24:05.106Z,1.00
2022-07-27T02:26:31.740Z,1.00
2022-07-27T02:28:58.354Z,1.00
2022-07-27T02:31:25.201Z,1.00
2022-07-27T02:33:51.835Z,1.00
2022-07-27T02:36:19.235Z,1.00
2022-07-27T02:38:45.945Z,1.00
2022-07-27T02:41:12.582Z,1.00
2022-07-27T02:43:39.200Z,1.00
2022-07-27T02:46:06.018Z,1.00
2022-07-27T02:48:33.396Z,1.00
2022-07-27T02:51:01.806Z,1.00
2022-07-27T02:53:29.419Z,1.00
2022-07-27T02:55:56.301Z,1.00
2022-07-27T02:58:23.553Z,1.00
2022-07-27T03:00:52.612Z,1.00
2022-07-27T03:03:23.051Z,1.00
2022-07-27T03:05:59.613Z,1.00
2022-07-27T03:08:26.269Z,1.00
2022-07-27T03:10:52.927Z,1.00
2022-07-27T03:13:19.544Z,1.00
2022-07-27T03:15:46.243Z,1.00
2022-07-27T03:18:12.911Z,1.00
2022-07-27T03:20:39.513Z,1.00
2022-07-27T03:23:06.265Z,1.00
2022-07-27T03:25:32.965Z,1.00
2022-07-27T03:28:04.046Z,1.00
2022-07-27T03:30:32.319Z,1.00
2022-07-27T03:32:59.151Z,1.00
2022-07-27T03:35:25.858Z,1.00
2022-07-27T03:37:52.529Z,1.00
2022-07-27T03:40:19.287Z,1.00
2022-07-27T03:42:45.983Z,1.00
2022-07-27T03:45:12.597Z,1.00
2022-07-27T03:47:39.226Z,1.00
2022-07-27T03:50:06.345Z,1.00
2022-07-27T03:52:33.001Z,1.00
2022-07-27T03:54:59.670Z,1.00
2022-07-27T03:57:26.370Z,1.00
2022-07-27T03:59:53.032Z,1.00
2022-07-27T04:02:19.816Z,1.00
2022-07-27T04:04:46.540Z,1.00
2022-07-27T04:07:13.195Z,1.00
2022-07-27T04:09:39.924Z,1.00
2022-07-27T04:12:08.408Z,1.00
2022-07-27T04:14:35.596Z,1.00
2022-07-27T04:17:02.328Z,1.00
2022-07-27T04:19:29.253Z,1.00
2022-07-27T04:21:57.127Z,1.00
2022-07-27T04:24:24.082Z,1.00
2022-07-27T04:26:51.019Z,1.00
2022-07-27T04:29:20.669Z,1.00
2022-07-27T04:31:48.298Z,1.00
2022-07-27T04:34:15.139Z,1.00
2022-07-27T04:36:42.296Z,1.00
2022-07-27T04:39:09.779Z,1.00
2022-07-27T04:41:36.806Z,1.00
2022-07-27T04:44:04.249Z,1.00
2022-07-27T04:46:31.025Z,1.00
2022-07-27T04:48:58.228Z,1.00
2022-07-27T04:51:25.061Z,1.00
2022-07-27T04:53:53.932Z,1.00
2022-07-27T04:56:27.246Z,1.00
2022-07-27T04:58:55.369Z,1.00
2022-07-27T05:01:26.134Z,1.00
2022-07-27T05:03:54.487Z,1.00
2022-07-27T05:06:21.204Z,1.00
2022-07-27T05:08:47.986Z,1.00
2022-07-27T05:11:15.092Z,1.00
2022-07-27T05:13:41.942Z,1.00
2022-07-27T05:16:10.807Z,1.00
2022-07-27T05:18:38.504Z,1.00
2022-07-27T05:21:05.790Z,1.00
2022-07-27T05:23:33.073Z,1.00
2022-07-27T05:25:59.956Z,1.00
2022-07-27T05:28:26.630Z,1.00
2022-07-27T05:30:53.495Z,1.00
2022-07-27T05:33:20.243Z,1.00
2022-07-27T05:35:46.893Z,1.00
2022-07-27T05:38:13.585Z,1.00
2022-07-27T05:40:41.193Z,1.00
2022-07-27T05:43:07.804Z,1.00
2022-07-27T05:45:34.533Z,1.00
2022-07-27T05:48:01.237Z,1.00
2022-07-27T05:50:27.890Z,1.00
2022-07-27T05:52:55.069Z,1.00
2022-07-27T05:55:21.825Z,1.00
2022-07-27T05:57:48.484Z,1.00
2022-07-27T06:00:15.468Z,1.00
2022-07-27T06:02:42.256Z,1.00
2022-07-27T06:05:15.291Z,1.00
2022-07-27T06:08:03.123Z,1.00
2022-07-27T06:10:32.179Z,1.00
2022-07-27T06:12:58.966Z,1.00
2022-07-27T06:15:26.058Z,1.00
2022-07-27T06:17:53.917Z,1.00
2022-07-27T06:20:22.287Z,1.00
2022-07-27T06:22:57.688Z,1.00
2022-07-27T06:25:34.562Z,1.00
2022-07-27T06:28:02.408Z,1.00
2022-07-27T06:30:29.172Z,1.00
2022-07-27T06:32:57.350Z,1.00
2022-07-27T06:35:24.025Z,1.00
2022-07-27T06:37:52.753Z,1.00
2022-07-27T06:40:20.519Z,1.00
2022-07-27T06:42:47.709Z,1.00
2022-07-27T06:45:15.282Z,1.00
2022-07-27T06:47:49.169Z,1.00
2022-07-27T06:50:18.189Z,1.00
2022-07-27T06:55:33.293Z,1.00
2022-07-27T06:58:00.164Z,1.00
2022-07-27T07:00:26.923Z,1.00
2022-07-27T07:03:03.015Z,1.00
2022-07-27T07:05:31.966Z,1.00
2022-07-27T07:07:59.197Z,1.00
2022-07-27T07:10:26.784Z,1.00
2022-07-27T07:12:57.106Z,1.00
2022-07-27T07:15:25.186Z,1.00
2022-07-27T07:17:52.671Z,1.00
2022-07-27T07:20:19.342Z,1.00
2022-07-27T07:22:46.048Z,1.00
2022-07-27T07:25:12.809Z,1.00
2022-07-27T07:27:39.505Z,1.00
2022-07-27T07:30:07.458Z,1.00
2022-07-27T07:32:34.064Z,1.00
2022-07-27T07:35:01.519Z,1.00
2022-07-27T07:37:33.561Z,1.00
2022-07-27T07:40:18.714Z,1.00
2022-07-27T07:42:48.463Z,1.00
2022-07-27T07:45:16.183Z,1.00
2022-07-27T07:47:42.845Z,1.00
2022-07-27T07:50:09.860Z,1.00
2022-07-27T07:52:37.207Z,1.00
2022-07-27T07:55:04.457Z,1.00
2022-07-27T07:57:31.125Z,1.00
2022-07-27T07:59:57.787Z,1.00
2022-07-27T08:02:24.724Z,1.00
2022-07-27T08:04:54.292Z,1.00
2022-07-27T08:07:21.060Z,1.00
2022-07-27T08:09:47.705Z,1.00
2022-07-27T08:12:14.423Z,1.00
2022-07-27T08:14:41.112Z,1.00
2022-07-27T08:17:07.748Z,1.00
2022-07-27T08:19:39.495Z,1.00
2022-07-27T08:22:06.920Z,1.00
2022-07-27T08:24:33.766Z,1.00
2022-07-27T08:27:00.580Z,1.00
2022-07-27T08:29:35.948Z,1.00
2022-07-27T08:32:03.924Z,1.00
2022-07-27T08:34:33.053Z,1.00
2022-07-27T08:36:59.806Z,1.00
2022-07-27T08:40:27.886Z,1.00
2022-07-27T08:42:13.960Z,1.00
2022-07-27T08:44:42.042Z,1.00
2022-07-27T08:47:14.676Z,1.00
2022-07-27T08:49:44.133Z,1.00
2022-07-27T08:52:12.296Z,1.00
2022-07-27T08:54:40.476Z,99.90
2022-07-27T08:57:09.479Z,99.90
2022-07-27T08:59:37.343Z,99.90
2022-07-27T09:02:10.718Z,99.90
2022-07-27T09:04:40.657Z,99.80
2022-07-27T09:07:07.590Z,99.50
2022-07-27T09:09:47.451Z,99.90
2022-07-27T09:12:14.383Z,99.20
2022-07-27T09:14:42.354Z,99.90
2022-07-27T09:17:47.910Z,99.10
2022-07-27T09:20:19.033Z,99.80
2022-07-27T09:22:52.547Z,98.40
2022-07-27T09:26:01.552Z,98.30
2022-07-27T09:28:29.757Z,98.40
2022-07-27T09:31:09.188Z,99.90
2022-07-27T09:33:48.075Z,97.20
2022-07-27T09:36:15.498Z,97.40
2022-07-27T09:39:02.068Z,98.40
2022-07-27T09:41:50.773Z,99.80
2022-07-27T09:44:41.959Z,98.30
2022-07-27T09:47:28.170Z,98.00
2022-07-27T09:50:17.403Z,96.40
2022-07-27T09:52:44.593Z,97.60
2022-07-27T09:55:11.298Z,97.30
2022-07-27T09:57:52.135Z,96.40
2022-07-27T10:00:19.146Z,96.70
2022-07-27T10:02:45.997Z,96.80
2022-07-27T10:05:14.133Z,96.60
2022-07-27T10:07:41.088Z,98.90
2022-07-27T10:10:08.129Z,97.80
2022-07-27T10:12:35.171Z,96.60
2022-07-27T10:15:01.818Z,96.40
2022-07-27T10:17:28.978Z,99.90
2022-07-27T10:19:57.519Z,98.20
2022-07-27T10:22:53.418Z,98.50
2022-07-27T10:25:22.460Z,98.50
2022-07-27T10:28:11.894Z,99.90
2022-07-27T10:30:39.341Z,99.80
2022-07-27T10:33:14.474Z,99.90
2022-07-27T10:35:41.625Z,99.90
2022-07-27T10:38:15.521Z,99.20
2022-07-27T10:40:43.637Z,98.60
2022-07-27T10:43:21.044Z,98.20
2022-07-27T10:46:00.857Z,98.30
2022-07-27T10:48:47.511Z,98.00
2022-07-27T10:51:16.383Z,97.70
2022-07-27T10:54:12.795Z,97.90
2022-07-27T10:56:45.160Z,97.40
2022-07-27T10:59:11.782Z,97.70
2022-07-27T11:01:58.370Z,96.90
2022-07-27T11:04:25.609Z,96.90
2022-07-27T11:07:23.551Z,98.20
2022-07-27T11:12:31.371Z,97.00
2022-07-27T11:15:00.817Z,99.90
2022-07-27T11:17:54.229Z,99.90
2022-07-27T11:20:22.740Z,99.90
2022-07-27T11:25:36.047Z,99.90
2022-07-27T11:28:09.363Z,99.90
2022-07-27T11:30:36.094Z,99.50
2022-07-27T11:33:04.740Z,99.90
2022-07-27T11:35:31.380Z,99.90
2022-07-27T11:38:03.434Z,99.90
2022-07-27T11:41:12.797Z,99.90
2022-07-27T11:43:38.747Z,99.10
2022-07-27T11:46:23.633Z,99.90
2022-07-27T11:49:09.509Z,99.90
2022-07-27T11:51:40.940Z,99.20
2022-07-27T11:54:10.246Z,99.70
2022-07-27T11:56:39.971Z,99.90
2022-07-27T11:59:06.674Z,99.90
2022-07-27T12:01:39.023Z,99.90
2022-07-27T12:04:13.133Z,99.90
2022-07-27T12:06:43.271Z,99.90
2022-07-27T12:09:13.993Z,99.90
2022-07-27T12:11:59.409Z,99.90
2022-07-27T12:14:40.652Z,99.90
2022-07-27T12:17:25.840Z,99.90
2022-07-27T12:19:52.455Z,99.90
2022-07-27T12:22:30.500Z,99.90
2022-07-27T12:24:59.107Z,99.90
2022-07-27T12:27:26.405Z,99.90
2022-07-27T12:30:07.982Z,99.90
2022-07-27T12:32:43.369Z,99.90
2022-07-27T12:35:25.671Z,99.90
2022-07-27T12:38:04.523Z,99.80
2022-07-27T12:40:32.763Z,99.90
2022-07-27T12:43:05.480Z,99.90
2022-07-27T12:45:37.211Z,99.90
2022-07-27T12:48:16.574Z,99.00
2022-07-27T12:50:45.826Z,99.10
2022-07-27T12:53:14.327Z,98.90
2022-07-27T12:55:42.784Z,98.80
2022-07-27T12:58:13.630Z,99.60
2022-07-27T13:00:44.040Z,99.40
2022-07-27T13:03:11.045Z,99.20
2022-07-27T13:05:37.743Z,99.60
2022-07-27T13:08:04.960Z,98.40
2022-07-27T13:10:32.409Z,98.20
2022-07-27T13:12:59.644Z,99.90
2022-07-27T13:15:26.646Z,99.90
2022-07-27T13:17:53.452Z,99.90
2022-07-27T13:20:20.230Z,99.90
2022-07-27T13:22:47.436Z,99.90
2022-07-27T13:25:17.334Z,99.90
2022-07-27T13:27:45.859Z,99.90
2022-07-27T13:30:13.855Z,99.90
2022-07-27T13:32:41.516Z,99.90
2022-07-27T13:35:10.027Z,99.90
2022-07-27T13:37:36.697Z,99.90
2022-07-27T13:40:04.450Z,99.90
2022-07-27T13:42:31.201Z,99.90
2022-07-27T13:45:08.529Z,99.90
2022-07-27T13:47:35.951Z,99.90
2022-07-27T13:50:03.474Z,99.20
2022-07-27T13:52:30.409Z,99.90
2022-07-27T13:54:57.286Z,98.30
2022-07-27T13:57:24.114Z,99.90
2022-07-27T13:59:50.943Z,99.90
2022-07-27T14:02:22.849Z,99.90
2022-07-27T14:04:49.760Z,99.40
2022-07-27T14:07:17.153Z,99.90
2022-07-27T14:10:02.749Z,99.90
2022-07-27T14:12:29.606Z,99.90
2022-07-27T14:14:56.254Z,99.90
2022-07-27T14:17:23.173Z,99.90
2022-07-27T14:19:50.050Z,99.90
2022-07-27T14:22:16.763Z,99.90
2022-07-27T14:24:43.404Z,99.90
2022-07-27T14:27:18.159Z,99.90
2022-07-27T14:29:56.496Z,99.90
2022-07-27T14:32:23.223Z,99.90
2022-07-27T14:34:49.834Z,99.90
2022-07-27T14:37:17.234Z,99.90
2022-07-27T14:39:43.996Z,99.90
2022-07-27T14:42:10.838Z,99.90
2022-07-27T14:44:37.660Z,99.90
2022-07-27T14:47:04.313Z,99.90
2022-07-27T14:49:31.114Z,99.90
2022-07-27T14:51:57.772Z,99.90
2022-07-27T14:54:24.414Z,99.90
2022-07-27T14:56:51.060Z,99.90
2022-07-27T14:59:17.950Z,99.90
2022-07-27T15:01:45.016Z,99.90
2022-07-27T15:04:11.782Z,99.90
2022-07-27T15:06:39.356Z,99.90
2022-07-27T15:09:07.563Z,99.90
2022-07-27T15:11:34.428Z,99.90
2022-07-27T15:14:01.169Z,99.90
2022-07-27T15:16:32.191Z,99.90
2022-07-27T15:18:59.201Z,99.90
2022-07-27T15:21:26.633Z,99.90
2022-07-27T15:23:53.453Z,99.90
2022-07-27T15:26:20.103Z,99.90
2022-07-27T15:28:46.736Z,99.90
2022-07-27T15:31:13.861Z,99.90
2022-07-27T15:33:40.683Z,99.90
2022-07-27T15:36:07.454Z,99.90
2022-07-27T15:38:34.141Z,99.90
2022-07-27T15:41:00.794Z,99.90
2022-07-27T15:43:27.627Z,99.80
2022-07-27T15:45:54.557Z,99.90
2022-07-27T15:48:21.414Z,99.90
2022-07-27T15:50:51.144Z,99.40
2022-07-27T15:53:20.650Z,99.10
2022-07-27T15:55:48.123Z,99.90
2022-07-27T15:58:17.831Z,99.50
2022-07-27T16:00:46.388Z,99.90
2022-07-27T16:03:14.899Z,99.00
2022-07-27T16:05:42.869Z,98.60
2022-07-27T16:08:10.417Z,98.60
2022-07-27T16:10:41.823Z,98.40
2022-07-27T16:13:10.269Z,99.10
2022-07-27T16:15:56.430Z,98.40
2022-07-27T16:18:23.417Z,98.20
2022-07-27T16:20:50.571Z,99.90
2022-07-27T16:23:21.214Z,96.90
2022-07-27T16:26:04.642Z,97.00
2022-07-27T16:28:34.531Z,97.00
2022-07-27T16:31:01.812Z,99.30
2022-07-27T16:33:28.736Z,99.70
2022-07-27T16:35:55.386Z,99.90
2022-07-27T16:38:22.089Z,99.90
2022-07-27T16:40:48.713Z,99.90
2022-07-27T16:43:15.332Z,99.90
2022-07-27T16:45:42.000Z,99.60
2022-07-27T16:48:08.885Z,99.90
2022-07-27T16:50:35.625Z,99.90
2022-07-27T16:53:02.295Z,99.90
2022-07-27T16:55:30.004Z,99.90
2022-07-27T16:57:56.921Z,99.80
2022-07-27T17:00:23.550Z,98.90
2022-07-27T17:02:50.565Z,98.50
2022-07-27T17:05:17.305Z,99.90
2022-07-27T17:07:44.062Z,99.90
2022-07-27T17:10:10.766Z,99.90
2022-07-27T17:12:39.232Z,99.90
2022-07-27T17:15:07.304Z,99.90
2022-07-27T17:17:34.440Z,99.90
2022-07-27T17:20:01.282Z,99.90
2022-07-27T17:22:28.112Z,99.90
2022-07-27T17:24:54.718Z,99.90
2022-07-27T17:27:21.877Z,99.90
2022-07-27T17:29:49.139Z,99.90
2022-07-27T17:32:15.872Z,99.90
2022-07-27T17:34:43.372Z,99.90
2022-07-27T17:37:10.034Z,99.90
2022-07-27T17:39:36.721Z,99.90
2022-07-27T17:42:04.374Z,99.90
2022-07-27T17:44:32.282Z,99.90
2022-07-27T17:47:00.827Z,99.90
2022-07-27T17:49:28.054Z,99.90
2022-07-27T17:51:54.809Z,99.90
2022-07-27T17:54:22.656Z,99.90
2022-07-27T17:56:49.322Z,99.90
2022-07-27T17:59:36.445Z,99.90
2022-07-27T18:02:04.736Z,99.90
2022-07-27T18:04:35.618Z,99.90
2022-07-27T18:07:05.511Z,99.30
2022-07-27T18:09:32.163Z,99.90
2022-07-27T18:11:58.966Z,99.90
2022-07-27T18:14:25.738Z,99.90
2022-07-27T18:16:52.413Z,99.90
2022-07-27T18:19:19.168Z,99.60
2022-07-27T18:21:45.876Z,99.90
2022-07-27T18:24:12.561Z,99.90
2022-07-27T18:26:39.228Z,99.90
2022-07-27T18:29:06.696Z,99.90
2022-07-27T18:31:33.412Z,99.90
2022-07-27T18:34:02.122Z,99.30
2022-07-27T18:36:29.334Z,99.90
2022-07-27T18:38:56.021Z,99.90
2022-07-27T18:41:24.745Z,99.90
2022-07-27T18:43:51.474Z,99.90
2022-07-27T18:46:20.089Z,99.90
2022-07-27T18:48:47.732Z,99.90
2022-07-27T18:51:15.543Z,99.90
2022-07-27T18:53:44.076Z,99.90
2022-07-27T18:56:11.957Z,99.90
2022-07-27T18:58:38.704Z,99.90
2022-07-27T19:01:05.446Z,99.90
2022-07-27T19:03:32.322Z,99.90
2022-07-27T19:05:58.938Z,99.90
2022-07-27T19:08:25.736Z,99.90
2022-07-27T19:10:52.534Z,99.90
2022-07-27T19:13:19.591Z,99.90
2022-07-27T19:15:46.347Z,99.90
2022-07-27T19:18:13.080Z,99.90
2022-07-27T19:20:39.786Z,99.90
2022-07-27T19:23:06.851Z,99.90
2022-07-27T19:25:34.184Z,99.20
2022-07-27T19:28:02.032Z,98.00
2022-07-27T19:30:28.837Z,98.00
2022-07-27T19:32:56.312Z,98.90
2022-07-27T19:35:23.104Z,98.90
2022-07-27T19:37:49.723Z,97.30
2022-07-27T19:43:04.481Z,96.50
2022-07-27T19:45:31.548Z,97.10
2022-07-27T19:47:59.389Z,96.20
2022-07-27T19:50:26.272Z,96.50
2022-07-27T19:52:53.011Z,95.90
2022-07-27T19:55:19.715Z,96.30
2022-07-27T19:57:46.331Z,96.40
2022-07-27T20:00:13.649Z,98.30
2022-07-27T20:02:40.424Z,95.90
2022-07-27T20:05:07.690Z,96.10
2022-07-27T20:07:34.451Z,99.60
2022-07-27T20:10:01.059Z,96.30
2022-07-27T20:12:27.694Z,96.10
2022-07-27T20:14:54.312Z,96.00
2022-07-27T20:17:20.976Z,95.80
2022-07-27T20:19:47.617Z,95.90
2022-07-27T20:22:14.251Z,96.20
2022-07-27T20:24:40.943Z,95.80
2022-07-27T20:27:07.595Z,96.10
2022-07-27T20:29:34.265Z,96.00
2022-07-27T20:32:00.913Z,96.40
2022-07-27T20:34:27.582Z,96.40
2022-07-27T20:36:55.306Z,97.60
2022-07-27T20:39:23.512Z,96.10
2022-07-27T20:41:50.534Z,96.00
2022-07-27T20:44:17.297Z,96.20
2022-07-27T20:46:43.912Z,96.60
2022-07-27T20:49:10.940Z,95.70
2022-07-27T20:51:39.234Z,1.00
2022-07-27T20:54:05.916Z,1.00
2022-07-27T20:56:32.538Z,1.00
2022-07-27T20:58:59.341Z,1.00
2022-07-27T21:01:26.020Z,1.00
2022-07-27T21:03:52.674Z,1.00
2022-07-27T21:06:19.513Z,1.00
2022-07-27T21:08:46.990Z,1.00
2022-07-27T21:11:13.874Z,1.00
2022-07-27T21:13:40.862Z,1.00
2022-07-27T21:16:07.686Z,1.00
2022-07-27T21:18:34.472Z,1.00
2022-07-27T21:21:01.151Z,1.00
2022-07-27T21:23:46.296Z,1.00
2022-07-27T21:26:15.420Z,1.00
2022-07-27T21:28:44.865Z,1.00
2022-07-27T21:31:11.566Z,1.00
2022-07-27T21:33:40.010Z,1.00
2022-07-27T21:36:07.159Z,1.00
2022-07-27T21:38:33.908Z,1.00
2022-07-27T21:41:00.722Z,1.00
2022-07-27T21:43:27.377Z,1.00
2022-07-27T21:45:54.045Z,1.00
2022-07-27T21:48:20.693Z,1.00
2022-07-27T21:50:47.344Z,1.00
2022-07-27T21:53:13.970Z,1.00
2022-07-27T21:55:40.978Z,1.00
2022-07-27T21:58:09.930Z,1.00
2022-07-27T22:00:37.845Z,1.00
2022-07-27T22:03:05.672Z,1.00
2022-07-27T22:05:32.304Z,1.00
2022-07-27T22:08:01.905Z,1.00
2022-07-27T22:10:31.897Z,1.00
2022-07-27T22:12:58.774Z,1.00
2022-07-27T22:15:26.820Z,1.00
2022-07-27T22:17:53.984Z,1.00
2022-07-27T22:20:21.916Z,1.00
2022-07-27T22:22:49.946Z,1.00
2022-07-27T22:25:17.605Z,1.00
2022-07-27T22:27:44.552Z,1.00
2022-07-27T22:30:11.353Z,1.00
2022-07-27T22:32:38.335Z,1.00
2022-07-27T22:35:05.611Z,1.00
2022-07-27T22:37:32.232Z,1.00
2022-07-27T22:39:59.028Z,1.00
2022-07-27T22:42:25.649Z,1.00
2022-07-27T22:44:52.315Z,1.00
2022-07-27T22:47:18.988Z,1.00
2022-07-27T22:49:45.613Z,1.00
2022-07-27T22:52:12.349Z,1.00
2022-07-27T22:54:39.172Z,1.00
2022-07-27T22:57:06.285Z,1.00
2022-07-27T22:59:34.505Z,1.00
2022-07-27T23:02:01.616Z,1.00
2022-07-27T23:04:28.387Z,1.00
2022-07-27T23:06:55.219Z,1.00
2022-07-27T23:09:23.057Z,1.00
2022-07-27T23:11:50.354Z,1.00
2022-07-27T23:14:18.679Z,1.00
2022-07-27T23:16:45.857Z,1.00
2022-07-27T23:19:12.625Z,1.00
2022-07-27T23:21:39.629Z,1.00
2022-07-27T23:24:09.253Z,1.00
2022-07-27T23:26:36.597Z,1.00
2022-07-27T23:29:03.372Z,1.00
2022-07-27T23:31:30.257Z,1.00
2022-07-27T23:33:56.933Z,1.00
2022-07-27T23:36:23.531Z,1.00
2022-07-27T23:38:50.169Z,1.00
2022-07-27T23:41:17.080Z,1.00
2022-07-27T23:43:43.953Z,1.00
2022-07-27T23:46:10.692Z,1.00
2022-07-27T23:48:37.489Z,1.00
2022-07-27T23:51:04.145Z,1.00
2022-07-27T23:53:30.783Z,1.00
2022-07-27T23:55:58.252Z,1.00
2022-07-27T23:58:24.868Z,1.00
